Hemet, CA (92544)

8:16 AM PDT on July 25, 2016 (GMT -0700)
Red Mountain Road | | Change Station

Elev 3314 ft 33.63 °N, 116.89 °W | Updated 1 minute ago

Clear
Clear
79.9 °F
Feels Like 79 °F
N
2.7
Wind Variable Wind from ESE

Today
High -- | Low -- °F
--% Chance of Precip.
Yesterday
High -- | Low -- °F
Precip. -- in
Pressure 30.01 in
Visibility 10.0 miles
Clouds Clear
Heat Index 79 °F
Dew Point 46 °F
Humidity 31%
Rainfall 0.00 in
Snow Depth Not available.
5:55 AM 7:52 PM
Waning Gibbous, 65% visible
METAR KF70 251455Z AUTO 00000KT 10SM CLR 23/10 A3001 RMK AO1
Pressure 30.01 in
Visibility 10.0 miles
Clouds Clear
Heat Index 79 °F
Dew Point 46 °F
Humidity 31%
Rainfall 0.00 in
Snow Depth Not available.
5:55 AM 7:52 PM
Waning Gibbous, 65% visible
METAR KF70 251455Z AUTO 00000KT 10SM CLR 23/10 A3001 RMK AO1

10-Day Weather Forecast

Almanac

Astronomy

Jul. 25, 2016 Rise Set
Actual Time
Civil Twilight
Nautical Twilight
Astronomical Twilight
Moon
Length of Visible Light
Length of Day
Tomorrow will be .
, % of the Moon is Illuminated

Today's Extremes

State Highs State Lows

Community

WunderPhotos

Upload Photos

1,927,314 photos uploaded!

WunderBlog® & News

Nearby

Air Quality

  Air Quality AQ Index Pollutant
Not available.

Snow Depth

Station Depth Elevation

Earthquake Activity

City Distance Mag. Time & Date
Minimum magnitude displayed is 2.5.

Coastal Water Temperatures

Place Temperature

Stations

Nearby Weather Stations

Station Location Temp. Windchill Dew Point Humidity Wind Precip. Elev Updated Type
                   

Watches & Warnings

There are currently no watches in effect.